Ailey, Georgia
Current Conditions -  °F | °C
As of 10:35 PM on Sunday 28 Dec 2014 (Local Time) from KVDI Reporting Station
Clear Clear  
Wind Chill: 16°   Ceiling: Unl
Heat Index: 16°   Visibility: 7mi
Dew Point: 16°   Wind: 3mph
Humidity: 100%   Direction: 170°S
Pressure: 30.06"   Gusts: NA
Location:  32.19°N, 82.57°W
Report Text: KVDI 290335Z AUTO 17003KT 7SM CLR 16/16 A3006 RMK AO2
Loading
Personal Weather Stations






























Interactive Weather Map New forecast layout! Learn more

10-Day Weather Forecast

Advertisements
Track Severe Weather on mobile